Latest Weather Observations for Broome Port

IDW60801

Issued at 4:02 pm WST Sunday 14 February 2016 (issued every 30 minutes, with the page automatically refreshed every 10 minutes)

About weather observations | Map of weather stations | Latest weather observations for WA | Other Formats
Station Details ID: 003102 Name: BROOME NTC AWS Lat: -18.00 Lon: 122.22 Height: 0.0 m
Data from the previous 72 hours. | See also: Recent months for locations in Western Australia
Date/Time
WST
Temp
°C
App
Temp
°C
Dew
Point
Rel
Hum
%
Delta-T
°C
Wind Press
QNH
hPa
Press
MSL
hPa
Rain
since 9 am
mm
Dir
 
Spd
km/h
Gust
km/h
Spd
kts
Gust
kts
14/04:00pm 30.6 - - - - WNW 22 26 12 14 1006.6 1006.5 -
14/03:30pm 30.6 - - - - W 20 26 11 14 1006.9 1006.8 -
14/03:00pm 30.7 - - - - W 19 24 10 13 1007.0 1006.9 -
14/02:30pm 30.6 - - - - W 22 28 12 15 1007.2 1007.1 -
14/02:00pm 30.4 - - - - W 20 26 11 14 1007.4 1007.3 -
14/01:30pm 30.4 - - - - W 19 22 10 12 1007.6 1007.5 -
14/01:00pm 30.3 - - - - W 20 26 11 14 1007.9 1007.8 -
14/12:30pm 30.2 - - - - W 20 26 11 14 1008.2 1008.1 -
14/12:00pm 30.3 - - - - W 20 26 11 14 1008.4 1008.3 -
14/11:30am 30.3 - - - - W 22 26 12 14 1008.7 1008.6 -
14/11:00am 30.3 - - - - W 20 26 11 14 1009.2 1009.1 -
14/10:30am 30.3 - - - - W 19 22 10 12 1009.5 1009.4 -
14/10:00am 30.4 - - - - W 17 20 9 11 1009.6 1009.5 -
14/09:30am 30.2 - - - - W 17 22 9 12 1009.6 1009.5 -
14/09:00am 30.3 - - - - W 17 20 9 11 1009.7 1009.6 -
14/08:30am 30.2 - - - - WNW 17 20 9 11 1009.8 1009.7 -
14/08:00am 30.2 - - - - W 19 24 10 13 1009.2 1009.1 -
14/07:30am 30.0 - - - - W 19 26 10 14 1009.1 1009.0 -
14/07:00am 30.0 - - - - WNW 19 24 10 13 1009.0 1008.9 -
14/06:30am 29.8 - - - - WNW 22 26 12 14 1008.6 1008.5 -
14/06:00am 29.7 - - - - WNW 20 24 11 13 1008.2 1008.1 -
14/05:30am 29.6 - - - - NW 19 22 10 12 1007.7 1007.6 -
14/05:00am 29.5 - - - - NW 15 20 8 11 1007.4 1007.3 -
14/04:30am 29.4 - - - - NNW 13 19 7 10 1007.1 1007.0 -
14/04:00am 29.6 - - - - NW 19 22 10 12 1006.7 1006.6 -
14/03:30am 29.5 - - - - NW 19 22 10 12 1006.5 1006.4 -
14/03:00am 29.4 - - - - NW 17 20 9 11 1006.4 1006.3 -
14/02:30am 29.5 - - - - NNW 17 20 9 11 1006.4 1006.3 -
14/02:00am 29.4 - - - - NNW 15 19 8 10 1006.5 1006.4 -
14/01:30am 29.5 - - - - NW 13 17 7 9 1006.6 1006.5 -
14/01:00am 29.6 - - - - NNW 11 15 6 8 1006.9 1006.8 -
14/12:30am 29.9 - - - - NW 15 20 8 11 1007.2 1007.1 -
14/12:00am 29.9 - - - - NNW 15 19 8 10 1007.7 1007.6 -
 
Date/Time
WST
Temp
°C
App
Temp
°C
Dew
Point
Rel
Hum
%
Delta-T
°C
Wind Press
QNH
hPa
Press
MSL
hPa
Rain
since 9 am
mm
Dir
 
Spd
km/h
Gust
km/h
Spd
kts
Gust
kts
13/11:30pm 30.0 - - - - NNW 15 19 8 10 1008.2 1008.1 -
13/11:00pm 30.1 - - - - NW 13 17 7 9 1008.5 1008.4 -
13/10:30pm 30.2 - - - - WNW 15 17 8 9 1008.6 1008.5 -
13/10:00pm 30.1 - - - - NW 17 22 9 12 1008.5 1008.4 -
13/09:30pm 30.1 - - - - NW 17 20 9 11 1008.5 1008.4 -
13/09:00pm 30.1 - - - - WNW 15 20 8 11 1008.4 1008.3 -
13/08:30pm 30.2 - - - - W 13 17 7 9 1008.3 1008.2 -
13/08:00pm 30.1 - - - - NW 4 6 2 3 1008.7 1008.6 -
13/07:30pm 30.2 - - - - W 7 9 4 5 1008.5 1008.4 -
13/07:00pm 30.1 - - - - S 9 13 5 7 1008.6 1008.5 -
13/06:30pm 30.1 - - - - N 2 4 1 2 1008.7 1008.6 -
13/06:00pm 30.1 - - - - NW 7 11 4 6 1008.1 1008.0 -
13/05:30pm 30.3 - - - - WNW 13 17 7 9 1007.8 1007.7 -
13/05:00pm 30.2 - - - - WNW 19 22 10 12 1006.6 1006.5 -
13/04:30pm 30.2 - - - - W 19 24 10 13 1006.3 1006.2 -
13/04:00pm 30.4 - - - - W 19 24 10 13 1006.5 1006.4 -
13/03:30pm 30.4 - - - - WNW 22 28 12 15 1006.8 1006.7 -
13/03:00pm 30.1 - - - - W 20 28 11 15 1007.1 1007.0 -
13/02:30pm 30.2 - - - - WNW 22 28 12 15 1007.3 1007.2 -
13/02:00pm 30.3 - - - - WNW 20 26 11 14 1007.6 1007.5 -
13/01:30pm 30.3 - - - - WNW 20 28 11 15 1007.8 1007.7 -
13/01:00pm 30.4 - - - - WNW 19 26 10 14 1008.0 1007.9 -
13/12:30pm 30.3 - - - - WNW 22 28 12 15 1008.2 1008.1 -
13/12:00pm 30.4 - - - - WNW 20 26 11 14 1008.6 1008.5 -
13/11:30am 30.3 - - - - WNW 22 28 12 15 1009.1 1009.0 -
13/11:00am 30.4 - - - - WNW 20 28 11 15 1009.2 1009.1 -
13/10:30am 30.3 - - - - WNW 22 28 12 15 1009.5 1009.4 -
13/10:00am 30.4 - - - - WNW 22 28 12 15 1009.6 1009.5 -
13/09:30am 30.2 - - - - WNW 22 28 12 15 1009.7 1009.6 -
13/09:00am 30.3 - - - - WNW 20 26 11 14 1010.0 1009.9 -
13/08:30am 30.4 - - - - NW 19 24 10 13 1010.2 1010.1 -
13/08:00am 30.5 - - - - NW 20 26 11 14 1009.9 1009.8 -
13/07:30am 30.4 - - - - NW 20 26 11 14 1009.7 1009.6 -
13/07:00am 30.2 - - - - NW 17 22 9 12 1009.5 1009.4 -
13/06:30am 30.0 - - - - NW 17 22 9 12 1009.3 1009.2 -
13/06:00am 29.9 - - - - NW 17 20 9 11 1008.8 1008.7 -
13/05:30am 30.0 - - - - NW 22 30 12 16 1008.3 1008.2 -
13/05:00am 30.0 - - - - NW 24 32 13 17 1008.0 1007.9 -
13/04:30am 29.9 - - - - NW 26 32 14 17 1007.8 1007.7 -
13/04:00am 30.0 - - - - NW 22 30 12 16 1007.7 1007.6 -
13/03:30am 30.0 - - - - NNW 19 22 10 12 1007.6 1007.5 -
13/03:00am 30.1 - - - - NW 22 30 12 16 1007.4 1007.3 -
13/02:30am 29.9 - - - - NW 26 33 14 18 1007.2 1007.1 -
13/02:00am 30.2 - - - - NNW 24 30 13 16 1007.1 1007.0 -
13/01:30am 30.0 - - - - NNW 26 33 14 18 1006.9 1006.8 -
13/01:00am 30.0 - - - - NW 17 24 9 13 1007.3 1007.2 -
13/12:30am 29.6 - - - - NNW 7 11 4 6 1007.7 1007.6 -
13/12:00am 29.2 - - - - N 11 13 6 7 1007.9 1007.8 -
 
Date/Time
WST
Temp
°C
App
Temp
°C
Dew
Point
Rel
Hum
%
Delta-T
°C
Wind Press
QNH
hPa
Press
MSL
hPa
Rain
since 9 am
mm
Dir
 
Spd
km/h
Gust
km/h
Spd
kts
Gust
kts
12/11:30pm 29.5 - - - - ENE 17 22 9 12 1008.2 1008.1 -
12/11:00pm 30.8 - - - - NNE 11 15 6 8 1008.3 1008.2 -
12/10:30pm 30.4 - - - - NNW 22 28 12 15 1007.6 1007.5 -
12/10:00pm 30.1 - - - - NW 24 30 13 16 1007.4 1007.3 -
12/09:30pm 30.3 - - - - NNW 26 33 14 18 1007.5 1007.4 -
12/09:00pm 30.4 - - - - NNW 32 39 17 21 1007.3 1007.2 -
12/08:30pm 30.2 - - - - NNW 37 48 20 26 1007.1 1007.0 -
12/08:00pm 30.3 - - - - N 37 46 20 25 1007.0 1006.9 -
12/07:30pm 30.4 - - - - N 35 43 19 23 1007.1 1007.0 -
12/07:00pm 30.3 - - - - N 33 41 18 22 1007.1 1007.0 -
12/06:30pm 30.6 - - - - N 32 39 17 21 1006.7 1006.6 -
12/06:12pm 30.4 - - - - N 33 44 18 24 1006.6 1006.5 -
12/06:00pm 30.4 - - - - NNW 26 32 14 17 1005.6 1005.5 -
12/05:30pm 30.3 - - - - NNW 30 37 16 20 1005.6 1005.5 -
12/05:00pm 30.3 - - - - NW 32 39 17 21 1004.4 1004.3 -
12/04:30pm 30.3 - - - - NNW 32 39 17 21 1004.8 1004.7 -
12/04:00pm 30.1 - - - - NNW 24 37 13 20 1005.4 1005.3 -
12/03:30pm 30.2 - - - - NNW 39 46 21 25 1004.1 1004.0 -
12/03:00pm 30.3 - - - - NNW 37 44 20 24 1004.1 1004.0 -
12/02:30pm 30.1 - - - - NW 32 39 17 21 1004.5 1004.4 -
12/02:00pm 30.4 - - - - NNW 30 39 16 21 1005.0 1004.9 -
12/01:30pm 30.6 - - - - NNW 26 35 14 19 1005.6 1005.5 -
12/01:00pm 30.6 - - - - NNW 28 33 15 18 1006.1 1006.0 -
12/12:30pm 30.4 - - - - NNW 24 32 13 17 1006.4 1006.3 -
12/12:00pm 30.5 - - - - NNW 22 28 12 15 1006.6 1006.5 -
12/11:30am 30.6 - - - - NNW 22 26 12 14 1006.8 1006.7 -
12/11:00am 30.6 - - - - NW 20 26 11 14 1006.9 1006.8 -
12/10:30am 30.3 - - - - NW 19 24 10 13 1007.1 1007.0 -
12/10:00am 30.2 - - - - WNW 15 19 8 10 1007.3 1007.2 -
12/09:30am 30.2 - - - - W 15 19 8 10 1007.3 1007.2 -
12/09:00am 30.2 - - - - W 15 20 8 11 1007.4 1007.3 -
12/08:30am 30.2 - - - - W 13 17 7 9 1007.6 1007.5 -
12/08:00am 29.9 - - - - WNW 17 20 9 11 1007.4 1007.3 -
12/07:30am 29.8 - - - - WNW 17 22 9 12 1007.3 1007.2 -
12/07:00am 29.8 - - - - WNW 17 20 9 11 1007.3 1007.2 -
12/06:30am 29.4 - - - - NW 11 15 6 8 1007.2 1007.1 -
12/06:00am 29.2 - - - - NW 9 13 5 7 1006.8 1006.7 -
12/05:30am 29.4 - - - - WNW 11 15 6 8 1006.5 1006.4 -
12/05:00am 29.4 - - - - WNW 11 15 6 8 1006.6 1006.5 -
12/04:30am 29.6 - - - - WNW 13 17 7 9 1006.6 1006.5 -
12/04:00am 29.6 - - - - WNW 15 19 8 10 1006.1 1006.0 -
12/03:30am 29.6 - - - - WNW 15 17 8 9 1006.2 1006.1 -
12/03:00am 29.5 - - - - WNW 11 13 6 7 1006.0 1005.9 -
12/02:30am 29.7 - - - - WNW 11 13 6 7 1006.1 1006.0 -
12/02:00am 29.6 - - - - WSW 9 13 5 7 1006.6 1006.5 -
12/01:30am 29.4 - - - - NW 11 15 6 8 1006.1 1006.0 -
12/01:00am 29.6 - - - - NW 11 15 6 8 1006.2 1006.1 -
12/12:30am 29.6 - - - - NW 11 15 6 8 1006.6 1006.5 -
12/12:00am 29.7 - - - - NW 9 13 5 7 1006.8 1006.7 -
 
Date/Time
WST
Temp
°C
App
Temp
°C
Dew
Point
Rel
Hum
%
Delta-T
°C
Wind Press
QNH
hPa
Press
MSL
hPa
Rain
since 9 am
mm
Dir
 
Spd
km/h
Gust
km/h
Spd
kts
Gust
kts
11/11:30pm 29.7 - - - - NW 11 15 6 8 1006.9 1006.8 -
11/11:00pm 29.6 - - - - NW 13 15 7 8 1007.0 1006.9 -
11/10:30pm 29.8 - - - - NW 11 15 6 8 1007.1 1007.0 -
11/10:00pm 29.8 - - - - N 15 20 8 11 1007.1 1007.0 -
11/09:30pm 29.7 - - - - N 13 17 7 9 1006.8 1006.7 -
11/09:00pm 29.8 - - - - NW 11 15 6 8 1006.2 1006.1 -
11/08:30pm 29.9 - - - - NNW 13 15 7 8 1006.0 1005.9 -
11/08:00pm 30.0 - - - - NW 13 17 7 9 1005.4 1005.3 -
11/07:30pm 30.0 - - - - NW 11 17 6 9 1005.3 1005.2 -
11/07:00pm 30.0 - - - - WNW 19 20 10 11 1004.9 1004.8 -
11/06:30pm 30.1 - - - - NW 19 22 10 12 1005.1 1005.0 -
11/06:00pm 30.3 - - - - NNW 20 30 11 16 1004.9 1004.8 -
11/05:30pm 30.3 - - - - NW 24 28 13 15 1004.0 1003.9 -
11/05:00pm 30.5 - - - - NW 26 30 14 16 1003.7 1003.6 -
11/04:30pm 30.3 - - - - WNW 24 32 13 17 1003.7 1003.6 -

Other Formats:

Comma delimited format used in spreadsheet applications
http://www.bom.gov.au/fwo/IDW60801/IDW60801.95202.axf

JavaScript Object Notation format (JSON) in row-major order
http://www.bom.gov.au/fwo/IDW60801/IDW60801.95202.json